Seven Oaks, California
Current Conditions -  °F | °C
As of 6:55 PM on Tuesday 25 Nov 2014 (Local Time) from KL35 Reporting Station
Clear Clear  
Wind Chill: 37°   Ceiling: Unl
Heat Index: 37°   Visibility: 10mi
Dew Point: 10°   Wind: 0mph
Humidity: 33%   Direction: NA
Pressure: 30.53"   Gusts: NA
Location:  34.1811°N, 116.928°W
Report Text: KL35 260255Z AUTO 00000KT 10SM CLR 03/M12 A3053 RMK AO2
Loading
Personal Weather Stations






























Interactive Weather Map New forecast layout! Learn more

10-Day Weather Forecast

Advertisements
Track Severe Weather on mobile